< < Back
Terminal Aerodrome Forecast


Current Version              Previous Versions:   1  2  3  4  5  6  7  8  9  

Terminal Aerodrome Forecast

453
FTUS44 KMRX 280527
TAFTYS
TAF
KTYS 280527Z 2806/2906 00000KT P6SM SKC
     FM281500 36003KT P6SM SCT040
     FM290000 00000KT P6SM SKC=



Latest METAR

699
SAUS80 KWBC 280600
MTRTYS
METAR KTYS 280553Z 00000KT 10SM CLR 21/18 A3005 RMK AO2 SLP164 T02060178
10272 20200 58003


USA.gov is the U.S. government's official web portal to all federal, state and local government web resources and services.